sensor_id;sensor_type;location;lat;lon;timestamp;temperature;humidity
10980;DHT22;5543;51.734;8.744;2023-05-27T00:00:35;7.20;99.90
10980;DHT22;5543;51.734;8.744;2023-05-27T00:03:03;7.30;99.90
10980;DHT22;5543;51.734;8.744;2023-05-27T00:05:31;7.20;99.90
10980;DHT22;5543;51.734;8.744;2023-05-27T00:07:59;7.60;99.90
10980;DHT22;5543;51.734;8.744;2023-05-27T00:10:28;7.60;99.90
10980;DHT22;5543;51.734;8.744;2023-05-27T00:12:57;7.50;99.90
10980;DHT22;5543;51.734;8.744;2023-05-27T00:15:25;7.10;99.90
10980;DHT22;5543;51.734;8.744;2023-05-27T00:17:53;7.20;99.90
10980;DHT22;5543;51.734;8.744;2023-05-27T00:20:23;7.10;99.90
10980;DHT22;5543;51.734;8.744;2023-05-27T00:22:51;7.20;99.90
10980;DHT22;5543;51.734;8.744;2023-05-27T00:25:19;7.20;99.90
10980;DHT22;5543;51.734;8.744;2023-05-27T00:27:48;7.20;99.90
10980;DHT22;5543;51.734;8.744;2023-05-27T00:30:17;7.10;99.90
10980;DHT22;5543;51.734;8.744;2023-05-27T00:32:46;7.10;99.90
10980;DHT22;5543;51.734;8.744;2023-05-27T00:35:14;7.20;99.90
10980;DHT22;5543;51.734;8.744;2023-05-27T00:37:42;7.20;99.90
10980;DHT22;5543;51.734;8.744;2023-05-27T00:40:11;7.10;99.90
10980;DHT22;5543;51.734;8.744;2023-05-27T00:42:42;6.90;99.90
10980;DHT22;5543;51.734;8.744;2023-05-27T00:45:12;7.20;99.90
10980;DHT22;5543;51.734;8.744;2023-05-27T00:47:41;6.80;99.90
10980;DHT22;5543;51.734;8.744;2023-05-27T00:50:10;6.80;99.90
10980;DHT22;5543;51.734;8.744;2023-05-27T00:52:38;6.80;99.90
10980;DHT22;5543;51.734;8.744;2023-05-27T00:55:08;6.70;99.90
10980;DHT22;5543;51.734;8.744;2023-05-27T00:57:36;6.70;99.90
10980;DHT22;5543;51.734;8.744;2023-05-27T01:00:06;6.70;99.90
10980;DHT22;5543;51.734;8.744;2023-05-27T01:02:36;6.60;99.90
10980;DHT22;5543;51.734;8.744;2023-05-27T01:05:09;6.60;99.90
10980;DHT22;5543;51.734;8.744;2023-05-27T01:07:50;6.60;99.90
10980;DHT22;5543;51.734;8.744;2023-05-27T01:10:26;6.60;99.90
10980;DHT22;5543;51.734;8.744;2023-05-27T01:13:00;6.90;99.90
10980;DHT22;5543;51.734;8.744;2023-05-27T01:15:31;6.50;99.90
10980;DHT22;5543;51.734;8.744;2023-05-27T01:18:02;6.50;99.90
10980;DHT22;5543;51.734;8.744;2023-05-27T01:20:33;6.40;99.90
10980;DHT22;5543;51.734;8.744;2023-05-27T01:23:09;6.40;99.90
10980;DHT22;5543;51.734;8.744;2023-05-27T01:25:37;6.40;99.90
10980;DHT22;5543;51.734;8.744;2023-05-27T01:28:05;6.40;99.90
10980;DHT22;5543;51.734;8.744;2023-05-27T01:30:33;6.40;99.90
10980;DHT22;5543;51.734;8.744;2023-05-27T01:33:06;6.40;99.90
10980;DHT22;5543;51.734;8.744;2023-05-27T01:35:40;6.30;99.90
10980;DHT22;5543;51.734;8.744;2023-05-27T01:38:14;6.30;99.90
10980;DHT22;5543;51.734;8.744;2023-05-27T01:40:45;6.30;99.90
10980;DHT22;5543;51.734;8.744;2023-05-27T01:43:14;6.20;99.90
10980;DHT22;5543;51.734;8.744;2023-05-27T01:45:43;6.20;99.90
10980;DHT22;5543;51.734;8.744;2023-05-27T01:48:12;6.50;99.90
10980;DHT22;5543;51.734;8.744;2023-05-27T01:50:40;6.40;99.90
10980;DHT22;5543;51.734;8.744;2023-05-27T01:53:08;6.10;99.90
10980;DHT22;5543;51.734;8.744;2023-05-27T01:55:38;6.10;99.90
10980;DHT22;5543;51.734;8.744;2023-05-27T01:58:06;6.10;99.90
10980;DHT22;5543;51.734;8.744;2023-05-27T02:00:34;6.10;99.90
10980;DHT22;5543;51.734;8.744;2023-05-27T02:03:02;6.10;99.90
10980;DHT22;5543;51.734;8.744;2023-05-27T02:05:30;6.10;99.90
10980;DHT22;5543;51.734;8.744;2023-05-27T02:07:58;6.40;99.90
10980;DHT22;5543;51.734;8.744;2023-05-27T02:10:28;5.80;99.90
10980;DHT22;5543;51.734;8.744;2023-05-27T02:12:58;6.00;99.90
10980;DHT22;5543;51.734;8.744;2023-05-27T02:15:26;5.90;99.90
10980;DHT22;5543;51.734;8.744;2023-05-27T02:17:54;5.90;99.90
10980;DHT22;5543;51.734;8.744;2023-05-27T02:20:23;5.90;99.90
10980;DHT22;5543;51.734;8.744;2023-05-27T02:22:51;5.90;99.90
10980;DHT22;5543;51.734;8.744;2023-05-27T02:25:19;6.00;99.90
10980;DHT22;5543;51.734;8.744;2023-05-27T02:27:47;5.90;99.90
10980;DHT22;5543;51.734;8.744;2023-05-27T02:30:18;5.90;99.90
10980;DHT22;5543;51.734;8.744;2023-05-27T02:32:46;5.90;99.90
10980;DHT22;5543;51.734;8.744;2023-05-27T02:35:14;5.90;99.90
10980;DHT22;5543;51.734;8.744;2023-05-27T02:37:42;5.80;99.90
10980;DHT22;5543;51.734;8.744;2023-05-27T02:40:11;5.80;99.90
10980;DHT22;5543;51.734;8.744;2023-05-27T02:42:39;5.80;99.90
10980;DHT22;5543;51.734;8.744;2023-05-27T02:45:10;5.70;99.90
10980;DHT22;5543;51.734;8.744;2023-05-27T02:47:39;5.70;99.90
10980;DHT22;5543;51.734;8.744;2023-05-27T02:50:08;5.70;99.90
10980;DHT22;5543;51.734;8.744;2023-05-27T02:52:36;5.70;99.90
10980;DHT22;5543;51.734;8.744;2023-05-27T02:55:05;5.70;99.90
10980;DHT22;5543;51.734;8.744;2023-05-27T02:57:34;5.70;99.90
10980;DHT22;5543;51.734;8.744;2023-05-27T03:00:02;5.70;99.90
10980;DHT22;5543;51.734;8.744;2023-05-27T03:02:30;5.70;99.90
10980;DHT22;5543;51.734;8.744;2023-05-27T03:05:00;5.70;99.90
10980;DHT22;5543;51.734;8.744;2023-05-27T03:07:28;5.70;99.90
10980;DHT22;5543;51.734;8.744;2023-05-27T03:09:58;5.70;99.90
10980;DHT22;5543;51.734;8.744;2023-05-27T03:12:26;5.60;99.90
10980;DHT22;5543;51.734;8.744;2023-05-27T03:14:54;5.60;99.90
10980;DHT22;5543;51.734;8.744;2023-05-27T03:17:22;5.60;99.90
10980;DHT22;5543;51.734;8.744;2023-05-27T03:19:50;5.60;99.90
10980;DHT22;5543;51.734;8.744;2023-05-27T03:22:20;5.60;99.90
10980;DHT22;5543;51.734;8.744;2023-05-27T03:24:48;5.80;99.90
10980;DHT22;5543;51.734;8.744;2023-05-27T03:27:16;5.60;99.90
10980;DHT22;5543;51.734;8.744;2023-05-27T03:29:44;5.90;99.90
10980;DHT22;5543;51.734;8.744;2023-05-27T03:32:13;5.60;99.90
10980;DHT22;5543;51.734;8.744;2023-05-27T03:34:41;5.50;99.90
10980;DHT22;5543;51.734;8.744;2023-05-27T03:37:09;5.70;99.90
10980;DHT22;5543;51.734;8.744;2023-05-27T03:39:39;5.70;99.90
10980;DHT22;5543;51.734;8.744;2023-05-27T03:42:07;5.80;99.90
10980;DHT22;5543;51.734;8.744;2023-05-27T03:44:35;5.60;99.90
10980;DHT22;5543;51.734;8.744;2023-05-27T03:47:04;5.80;99.90
10980;DHT22;5543;51.734;8.744;2023-05-27T03:49:32;5.70;99.90
10980;DHT22;5543;51.734;8.744;2023-05-27T03:52:00;5.70;99.90
10980;DHT22;5543;51.734;8.744;2023-05-27T03:54:29;5.70;99.90
10980;DHT22;5543;51.734;8.744;2023-05-27T03:56:58;5.70;99.90
10980;DHT22;5543;51.734;8.744;2023-05-27T03:59:26;5.70;99.90
10980;DHT22;5543;51.734;8.744;2023-05-27T04:01:55;5.70;99.90
10980;DHT22;5543;51.734;8.744;2023-05-27T04:04:23;5.80;99.90
10980;DHT22;5543;51.734;8.744;2023-05-27T04:06:51;5.80;99.90
10980;DHT22;5543;51.734;8.744;2023-05-27T04:09:20;5.80;99.90
10980;DHT22;5543;51.734;8.744;2023-05-27T04:11:48;5.80;99.90
10980;DHT22;5543;51.734;8.744;2023-05-27T04:14:17;6.10;99.90
10980;DHT22;5543;51.734;8.744;2023-05-27T04:16:45;6.10;99.90
10980;DHT22;5543;51.734;8.744;2023-05-27T04:19:15;6.00;99.90
10980;DHT22;5543;51.734;8.744;2023-05-27T04:21:43;6.10;99.90
10980;DHT22;5543;51.734;8.744;2023-05-27T04:24:11;6.20;99.90
10980;DHT22;5543;51.734;8.744;2023-05-27T04:26:39;6.20;99.90
10980;DHT22;5543;51.734;8.744;2023-05-27T04:29:08;6.50;99.90
10980;DHT22;5543;51.734;8.744;2023-05-27T04:31:40;6.40;99.90
10980;DHT22;5543;51.734;8.744;2023-05-27T04:34:08;6.70;99.90
10980;DHT22;5543;51.734;8.744;2023-05-27T04:36:37;6.40;99.90
10980;DHT22;5543;51.734;8.744;2023-05-27T04:39:05;6.50;99.90
10980;DHT22;5543;51.734;8.744;2023-05-27T04:41:34;6.50;99.90
10980;DHT22;5543;51.734;8.744;2023-05-27T04:44:02;6.50;99.90
10980;DHT22;5543;51.734;8.744;2023-05-27T04:46:30;6.60;99.90
10980;DHT22;5543;51.734;8.744;2023-05-27T04:49:00;6.60;99.90
10980;DHT22;5543;51.734;8.744;2023-05-27T04:51:28;6.70;99.90
10980;DHT22;5543;51.734;8.744;2023-05-27T04:53:56;6.70;99.90
10980;DHT22;5543;51.734;8.744;2023-05-27T04:56:25;6.80;99.90
10980;DHT22;5543;51.734;8.744;2023-05-27T04:58:53;6.90;99.90
10980;DHT22;5543;51.734;8.744;2023-05-27T05:01:22;7.00;99.90
10980;DHT22;5543;51.734;8.744;2023-05-27T05:03:52;7.00;99.90
10980;DHT22;5543;51.734;8.744;2023-05-27T05:06:40;7.20;99.90
10980;DHT22;5543;51.734;8.744;2023-05-27T05:09:09;7.20;99.90
10980;DHT22;5543;51.734;8.744;2023-05-27T05:11:38;7.30;99.90
10980;DHT22;5543;51.734;8.744;2023-05-27T05:14:06;7.40;99.90
10980;DHT22;5543;51.734;8.744;2023-05-27T05:16:34;7.50;99.90
10980;DHT22;5543;51.734;8.744;2023-05-27T05:19:03;7.50;99.90
10980;DHT22;5543;51.734;8.744;2023-05-27T05:21:31;7.70;99.90
10980;DHT22;5543;51.734;8.744;2023-05-27T05:24:01;7.70;99.90
10980;DHT22;5543;51.734;8.744;2023-05-27T05:26:30;7.80;99.90
10980;DHT22;5543;51.734;8.744;2023-05-27T05:28:58;7.90;99.90
10980;DHT22;5543;51.734;8.744;2023-05-27T05:31:26;8.00;99.90
10980;DHT22;5543;51.734;8.744;2023-05-27T05:33:54;8.00;99.90
10980;DHT22;5543;51.734;8.744;2023-05-27T05:36:22;8.10;99.90
10980;DHT22;5543;51.734;8.744;2023-05-27T05:38:51;8.30;99.90
10980;DHT22;5543;51.734;8.744;2023-05-27T05:41:20;8.30;99.90
10980;DHT22;5543;51.734;8.744;2023-05-27T05:43:48;8.40;99.90
10980;DHT22;5543;51.734;8.744;2023-05-27T05:46:16;8.60;99.90
10980;DHT22;5543;51.734;8.744;2023-05-27T05:48:44;8.70;99.90
10980;DHT22;5543;51.734;8.744;2023-05-27T05:51:14;8.70;99.90
10980;DHT22;5543;51.734;8.744;2023-05-27T05:53:42;8.90;99.90
10980;DHT22;5543;51.734;8.744;2023-05-27T05:56:10;9.10;99.90
10980;DHT22;5543;51.734;8.744;2023-05-27T05:58:40;9.20;99.90
10980;DHT22;5543;51.734;8.744;2023-05-27T06:01:08;9.30;99.90
10980;DHT22;5543;51.734;8.744;2023-05-27T06:03:36;9.30;99.90
10980;DHT22;5543;51.734;8.744;2023-05-27T06:06:05;9.60;99.90
10980;DHT22;5543;51.734;8.744;2023-05-27T06:08:33;9.70;99.90
10980;DHT22;5543;51.734;8.744;2023-05-27T06:11:01;9.80;99.90
10980;DHT22;5543;51.734;8.744;2023-05-27T06:13:29;10.00;99.90
10980;DHT22;5543;51.734;8.744;2023-05-27T06:15:59;10.10;99.90
10980;DHT22;5543;51.734;8.744;2023-05-27T06:18:27;10.20;99.90
10980;DHT22;5543;51.734;8.744;2023-05-27T06:20:55;10.40;99.90
10980;DHT22;5543;51.734;8.744;2023-05-27T06:23:23;10.50;99.90
10980;DHT22;5543;51.734;8.744;2023-05-27T06:25:51;10.60;99.90
10980;DHT22;5543;51.734;8.744;2023-05-27T06:28:19;10.80;99.90
10980;DHT22;5543;51.734;8.744;2023-05-27T06:30:47;10.90;99.90
10980;DHT22;5543;51.734;8.744;2023-05-27T06:33:17;11.10;99.90
10980;DHT22;5543;51.734;8.744;2023-05-27T06:35:45;11.20;99.90
10980;DHT22;5543;51.734;8.744;2023-05-27T06:38:13;11.40;99.90
10980;DHT22;5543;51.734;8.744;2023-05-27T06:40:41;11.60;99.90
10980;DHT22;5543;51.734;8.744;2023-05-27T06:43:09;11.80;99.90
10980;DHT22;5543;51.734;8.744;2023-05-27T06:45:37;11.90;99.90
10980;DHT22;5543;51.734;8.744;2023-05-27T06:48:22;12.10;99.90
10980;DHT22;5543;51.734;8.744;2023-05-27T06:50:50;12.30;99.90
10980;DHT22;5543;51.734;8.744;2023-05-27T06:53:18;12.50;99.90
10980;DHT22;5543;51.734;8.744;2023-05-27T06:55:47;12.60;99.90
10980;DHT22;5543;51.734;8.744;2023-05-27T06:58:15;12.90;99.90
10980;DHT22;5543;51.734;8.744;2023-05-27T07:00:43;13.10;99.90
10980;DHT22;5543;51.734;8.744;2023-05-27T07:03:11;13.30;99.90
10980;DHT22;5543;51.734;8.744;2023-05-27T07:05:41;13.50;99.90
10980;DHT22;5543;51.734;8.744;2023-05-27T07:08:09;13.70;99.90
10980;DHT22;5543;51.734;8.744;2023-05-27T07:10:37;13.80;99.90
10980;DHT22;5543;51.734;8.744;2023-05-27T07:13:05;14.10;99.90
10980;DHT22;5543;51.734;8.744;2023-05-27T07:15:33;14.30;99.90
10980;DHT22;5543;51.734;8.744;2023-05-27T07:20:28;14.60;99.90
10980;DHT22;5543;51.734;8.744;2023-05-27T07:23:00;14.80;99.90
10980;DHT22;5543;51.734;8.744;2023-05-27T07:25:28;14.90;99.90
10980;DHT22;5543;51.734;8.744;2023-05-27T07:27:56;15.00;99.90
10980;DHT22;5543;51.734;8.744;2023-05-27T07:30:24;15.00;99.90
10980;DHT22;5543;51.734;8.744;2023-05-27T07:32:53;15.10;99.90
10980;DHT22;5543;51.734;8.744;2023-05-27T07:35:21;15.20;99.90
10980;DHT22;5543;51.734;8.744;2023-05-27T07:37:49;15.40;99.90
10980;DHT22;5543;51.734;8.744;2023-05-27T07:40:19;15.60;99.90
10980;DHT22;5543;51.734;8.744;2023-05-27T07:42:47;15.80;99.90
10980;DHT22;5543;51.734;8.744;2023-05-27T07:45:15;15.90;99.40
10980;DHT22;5543;51.734;8.744;2023-05-27T07:47:43;15.90;99.50
10980;DHT22;5543;51.734;8.744;2023-05-27T07:50:13;16.10;99.60
10980;DHT22;5543;51.734;8.744;2023-05-27T07:52:41;16.20;99.70
10980;DHT22;5543;51.734;8.744;2023-05-27T07:55:10;16.20;98.30
10980;DHT22;5543;51.734;8.744;2023-05-27T07:57:39;16.20;99.00
10980;DHT22;5543;51.734;8.744;2023-05-27T08:00:09;16.20;98.90
10980;DHT22;5543;51.734;8.744;2023-05-27T08:02:37;16.30;99.50
10980;DHT22;5543;51.734;8.744;2023-05-27T08:05:06;16.50;98.30
10980;DHT22;5543;51.734;8.744;2023-05-27T08:07:34;16.70;97.50
10980;DHT22;5543;51.734;8.744;2023-05-27T08:10:02;16.90;97.80
10980;DHT22;5543;51.734;8.744;2023-05-27T08:12:31;17.20;98.70
10980;DHT22;5543;51.734;8.744;2023-05-27T08:15:00;17.20;97.40
10980;DHT22;5543;51.734;8.744;2023-05-27T08:17:28;17.50;97.50
10980;DHT22;5543;51.734;8.744;2023-05-27T08:19:57;17.60;96.30
10980;DHT22;5543;51.734;8.744;2023-05-27T08:22:25;17.80;96.30
10980;DHT22;5543;51.734;8.744;2023-05-27T08:24:53;18.00;97.00
10980;DHT22;5543;51.734;8.744;2023-05-27T08:27:42;18.30;96.00
10980;DHT22;5543;51.734;8.744;2023-05-27T08:30:12;18.90;96.10
10980;DHT22;5543;51.734;8.744;2023-05-27T08:32:41;19.50;94.70
10980;DHT22;5543;51.734;8.744;2023-05-27T08:35:10;20.20;94.20
10980;DHT22;5543;51.734;8.744;2023-05-27T08:37:39;21.10;93.90
10980;DHT22;5543;51.734;8.744;2023-05-27T08:40:12;22.10;93.70
10980;DHT22;5543;51.734;8.744;2023-05-27T08:42:42;22.70;92.00
10980;DHT22;5543;51.734;8.744;2023-05-27T08:45:12;22.80;90.10
10980;DHT22;5543;51.734;8.744;2023-05-27T08:47:40;22.90;84.50
10980;DHT22;5543;51.734;8.744;2023-05-27T08:50:10;23.30;85.90
10980;DHT22;5543;51.734;8.744;2023-05-27T08:52:48;24.20;87.10
10980;DHT22;5543;51.734;8.744;2023-05-27T08:55:19;24.80;83.40
10980;DHT22;5543;51.734;8.744;2023-05-27T08:57:51;24.80;80.40
10980;DHT22;5543;51.734;8.744;2023-05-27T09:00:21;25.50;81.30
10980;DHT22;5543;51.734;8.744;2023-05-27T09:02:49;25.80;80.70
10980;DHT22;5543;51.734;8.744;2023-05-27T09:05:18;26.80;79.90
10980;DHT22;5543;51.734;8.744;2023-05-27T09:07:46;27.50;72.30
10980;DHT22;5543;51.734;8.744;2023-05-27T09:10:14;28.00;73.30
10980;DHT22;5543;51.734;8.744;2023-05-27T09:12:43;27.20;68.30
10980;DHT22;5543;51.734;8.744;2023-05-27T09:15:12;27.10;70.90
10980;DHT22;5543;51.734;8.744;2023-05-27T09:17:43;26.80;70.20
10980;DHT22;5543;51.734;8.744;2023-05-27T09:20:12;26.60;67.80
10980;DHT22;5543;51.734;8.744;2023-05-27T09:22:40;26.80;71.90
10980;DHT22;5543;51.734;8.744;2023-05-27T09:25:09;26.60;67.70
10980;DHT22;5543;51.734;8.744;2023-05-27T09:27:43;27.00;70.10
10980;DHT22;5543;51.734;8.744;2023-05-27T09:30:13;27.50;67.50
10980;DHT22;5543;51.734;8.744;2023-05-27T09:32:43;28.50;68.00
10980;DHT22;5543;51.734;8.744;2023-05-27T09:35:11;29.30;66.20
10980;DHT22;5543;51.734;8.744;2023-05-27T09:37:40;29.70;67.20
10980;DHT22;5543;51.734;8.744;2023-05-27T09:40:09;29.70;59.00
10980;DHT22;5543;51.734;8.744;2023-05-27T09:42:40;29.70;61.60
10980;DHT22;5543;51.734;8.744;2023-05-27T09:45:11;29.80;60.10
10980;DHT22;5543;51.734;8.744;2023-05-27T09:47:43;29.90;59.10
10980;DHT22;5543;51.734;8.744;2023-05-27T09:50:16;28.90;57.40
10980;DHT22;5543;51.734;8.744;2023-05-27T09:52:45;28.70;55.60
10980;DHT22;5543;51.734;8.744;2023-05-27T09:55:30;28.90;59.00
10980;DHT22;5543;51.734;8.744;2023-05-27T09:57:59;29.50;56.80
10980;DHT22;5543;51.734;8.744;2023-05-27T10:00:28;30.20;58.30
10980;DHT22;5543;51.734;8.744;2023-05-27T10:03:00;30.80;57.60
10980;DHT22;5543;51.734;8.744;2023-05-27T10:05:29;30.10;52.60
10980;DHT22;5543;51.734;8.744;2023-05-27T10:07:58;31.00;56.80
10980;DHT22;5543;51.734;8.744;2023-05-27T10:10:44;31.60;56.40
10980;DHT22;5543;51.734;8.744;2023-05-27T10:13:14;31.30;54.50
10980;DHT22;5543;51.734;8.744;2023-05-27T10:15:47;32.00;54.90
10980;DHT22;5543;51.734;8.744;2023-05-27T10:18:26;31.80;52.50
10980;DHT22;5543;51.734;8.744;2023-05-27T10:20:58;32.10;52.50
10980;DHT22;5543;51.734;8.744;2023-05-27T10:23:27;31.50;50.00
10980;DHT22;5543;51.734;8.744;2023-05-27T10:25:56;30.20;51.80
10980;DHT22;5543;51.734;8.744;2023-05-27T10:28:26;30.70;53.50
10980;DHT22;5543;51.734;8.744;2023-05-27T10:31:04;30.60;50.90
10980;DHT22;5543;51.734;8.744;2023-05-27T10:33:36;30.70;53.50
10980;DHT22;5543;51.734;8.744;2023-05-27T10:36:07;30.80;53.80
10980;DHT22;5543;51.734;8.744;2023-05-27T10:38:36;31.30;53.50
10980;DHT22;5543;51.734;8.744;2023-05-27T10:41:05;31.20;52.80
10980;DHT22;5543;51.734;8.744;2023-05-27T10:43:34;32.00;51.50
10980;DHT22;5543;51.734;8.744;2023-05-27T10:46:04;32.90;49.30
10980;DHT22;5543;51.734;8.744;2023-05-27T10:48:34;32.30;46.00
10980;DHT22;5543;51.734;8.744;2023-05-27T10:51:04;32.10;48.40
10980;DHT22;5543;51.734;8.744;2023-05-27T10:53:34;32.60;49.70
10980;DHT22;5543;51.734;8.744;2023-05-27T10:56:03;32.80;49.10
10980;DHT22;5543;51.734;8.744;2023-05-27T10:58:34;33.70;49.40
10980;DHT22;5543;51.734;8.744;2023-05-27T11:01:08;33.50;47.00
10980;DHT22;5543;51.734;8.744;2023-05-27T11:03:43;33.80;46.40
10980;DHT22;5543;51.734;8.744;2023-05-27T11:06:13;34.50;47.90
10980;DHT22;5543;51.734;8.744;2023-05-27T11:08:42;34.90;47.30
10980;DHT22;5543;51.734;8.744;2023-05-27T11:11:11;35.10;45.20
10980;DHT22;5543;51.734;8.744;2023-05-27T11:13:41;34.90;44.50
10980;DHT22;5543;51.734;8.744;2023-05-27T11:16:14;34.90;44.70
10980;DHT22;5543;51.734;8.744;2023-05-27T11:18:46;35.70;45.30
10980;DHT22;5543;51.734;8.744;2023-05-27T11:21:15;35.60;43.20
10980;DHT22;5543;51.734;8.744;2023-05-27T11:23:45;36.00;43.90
10980;DHT22;5543;51.734;8.744;2023-05-27T11:26:14;35.90;40.90
10980;DHT22;5543;51.734;8.744;2023-05-27T11:28:49;34.90;41.20
10980;DHT22;5543;51.734;8.744;2023-05-27T11:31:18;34.80;43.80
10980;DHT22;5543;51.734;8.744;2023-05-27T11:33:50;35.00;42.10
10980;DHT22;5543;51.734;8.744;2023-05-27T11:36:19;34.90;39.90
10980;DHT22;5543;51.734;8.744;2023-05-27T11:38:49;34.10;42.00
10980;DHT22;5543;51.734;8.744;2023-05-27T11:41:18;34.00;41.30
10980;DHT22;5543;51.734;8.744;2023-05-27T11:43:50;34.00;41.20
10980;DHT22;5543;51.734;8.744;2023-05-27T11:46:18;32.90;41.80
10980;DHT22;5543;51.734;8.744;2023-05-27T11:48:47;32.90;42.70
10980;DHT22;5543;51.734;8.744;2023-05-27T11:51:17;33.20;41.80
10980;DHT22;5543;51.734;8.744;2023-05-27T11:53:46;33.20;40.50
10980;DHT22;5543;51.734;8.744;2023-05-27T11:56:14;33.50;41.80
10980;DHT22;5543;51.734;8.744;2023-05-27T11:58:43;33.40;41.30
10980;DHT22;5543;51.734;8.744;2023-05-27T12:01:11;33.60;40.50
10980;DHT22;5543;51.734;8.744;2023-05-27T12:03:39;33.50;42.00
10980;DHT22;5543;51.734;8.744;2023-05-27T12:06:08;33.60;39.10
10980;DHT22;5543;51.734;8.744;2023-05-27T12:08:40;33.40;40.80
10980;DHT22;5543;51.734;8.744;2023-05-27T12:11:09;33.30;41.40
10980;DHT22;5543;51.734;8.744;2023-05-27T12:13:37;33.90;42.50
10980;DHT22;5543;51.734;8.744;2023-05-27T12:16:05;34.30;43.20
10980;DHT22;5543;51.734;8.744;2023-05-27T12:18:33;33.50;39.80
10980;DHT22;5543;51.734;8.744;2023-05-27T12:21:02;33.40;41.30
10980;DHT22;5543;51.734;8.744;2023-05-27T12:23:30;32.20;41.40
10980;DHT22;5543;51.734;8.744;2023-05-27T12:26:00;32.10;45.40
10980;DHT22;5543;51.734;8.744;2023-05-27T12:28:28;32.10;45.80
10980;DHT22;5543;51.734;8.744;2023-05-27T12:30:56;31.90;41.10
10980;DHT22;5543;51.734;8.744;2023-05-27T12:33:25;31.50;42.10
10980;DHT22;5543;51.734;8.744;2023-05-27T12:35:53;31.40;44.70
10980;DHT22;5543;51.734;8.744;2023-05-27T12:38:21;31.00;44.00
10980;DHT22;5543;51.734;8.744;2023-05-27T12:40:49;30.50;45.00
10980;DHT22;5543;51.734;8.744;2023-05-27T12:43:19;29.90;46.30
10980;DHT22;5543;51.734;8.744;2023-05-27T12:45:47;30.20;50.20
10980;DHT22;5543;51.734;8.744;2023-05-27T12:48:15;30.00;48.20
10980;DHT22;5543;51.734;8.744;2023-05-27T12:50:44;29.70;47.40
10980;DHT22;5543;51.734;8.744;2023-05-27T12:53:12;30.30;48.90
10980;DHT22;5543;51.734;8.744;2023-05-27T12:55:42;30.60;48.40
10980;DHT22;5543;51.734;8.744;2023-05-27T12:58:10;30.40;45.60
10980;DHT22;5543;51.734;8.744;2023-05-27T13:00:39;30.00;45.40
10980;DHT22;5543;51.734;8.744;2023-05-27T13:03:08;29.50;48.10
10980;DHT22;5543;51.734;8.744;2023-05-27T13:05:38;29.30;49.00
10980;DHT22;5543;51.734;8.744;2023-05-27T13:08:06;29.50;49.20
10980;DHT22;5543;51.734;8.744;2023-05-27T13:10:34;30.60;51.10
10980;DHT22;5543;51.734;8.744;2023-05-27T13:13:02;31.30;49.50
10980;DHT22;5543;51.734;8.744;2023-05-27T13:15:31;32.10;45.60
10980;DHT22;5543;51.734;8.744;2023-05-27T13:18:01;32.00;45.10
10980;DHT22;5543;51.734;8.744;2023-05-27T13:20:30;31.70;45.60
10980;DHT22;5543;51.734;8.744;2023-05-27T13:22:58;31.80;47.90
10980;DHT22;5543;51.734;8.744;2023-05-27T13:25:28;31.60;46.50
10980;DHT22;5543;51.734;8.744;2023-05-27T13:27:56;32.00;45.80
10980;DHT22;5543;51.734;8.744;2023-05-27T13:30:25;31.40;45.10
10980;DHT22;5543;51.734;8.744;2023-05-27T13:32:53;31.30;45.30
10980;DHT22;5543;51.734;8.744;2023-05-27T13:35:24;30.70;44.10
10980;DHT22;5543;51.734;8.744;2023-05-27T13:37:52;30.70;48.40
10980;DHT22;5543;51.734;8.744;2023-05-27T13:40:21;30.80;48.50
10980;DHT22;5543;51.734;8.744;2023-05-27T13:42:49;30.70;48.80
10980;DHT22;5543;51.734;8.744;2023-05-27T13:45:17;30.00;48.60
10980;DHT22;5543;51.734;8.744;2023-05-27T13:47:46;30.50;49.00
10980;DHT22;5543;51.734;8.744;2023-05-27T13:50:14;30.40;49.80
10980;DHT22;5543;51.734;8.744;2023-05-27T13:52:44;30.80;50.60
10980;DHT22;5543;51.734;8.744;2023-05-27T13:55:12;30.70;49.00
10980;DHT22;5543;51.734;8.744;2023-05-27T13:57:40;30.00;51.20
10980;DHT22;5543;51.734;8.744;2023-05-27T14:00:11;29.90;49.80
10980;DHT22;5543;51.734;8.744;2023-05-27T14:02:40;30.00;49.40
10980;DHT22;5543;51.734;8.744;2023-05-27T14:05:09;29.60;47.70
10980;DHT22;5543;51.734;8.744;2023-05-27T14:07:39;28.70;51.00
10980;DHT22;5543;51.734;8.744;2023-05-27T14:10:10;28.90;51.80
10980;DHT22;5543;51.734;8.744;2023-05-27T14:12:38;28.80;49.50
10980;DHT22;5543;51.734;8.744;2023-05-27T14:15:07;28.90;49.40
10980;DHT22;5543;51.734;8.744;2023-05-27T14:17:36;28.50;48.80
10980;DHT22;5543;51.734;8.744;2023-05-27T14:20:05;28.40;49.40
10980;DHT22;5543;51.734;8.744;2023-05-27T14:22:37;28.30;50.80
10980;DHT22;5543;51.734;8.744;2023-05-27T14:25:06;28.10;50.00
10980;DHT22;5543;51.734;8.744;2023-05-27T14:27:36;28.40;51.90
10980;DHT22;5543;51.734;8.744;2023-05-27T14:30:05;28.00;50.10
10980;DHT22;5543;51.734;8.744;2023-05-27T14:32:33;28.30;49.00
10980;DHT22;5543;51.734;8.744;2023-05-27T14:35:01;28.20;48.90
10980;DHT22;5543;51.734;8.744;2023-05-27T14:37:29;28.10;49.40
10980;DHT22;5543;51.734;8.744;2023-05-27T14:39:57;27.60;47.60
10980;DHT22;5543;51.734;8.744;2023-05-27T14:42:26;27.80;50.80
10980;DHT22;5543;51.734;8.744;2023-05-27T14:44:55;27.90;52.90
10980;DHT22;5543;51.734;8.744;2023-05-27T14:47:26;28.10;53.50
10980;DHT22;5543;51.734;8.744;2023-05-27T14:49:54;28.20;53.40
10980;DHT22;5543;51.734;8.744;2023-05-27T14:52:23;28.20;52.20
10980;DHT22;5543;51.734;8.744;2023-05-27T14:54:51;28.30;50.70
10980;DHT22;5543;51.734;8.744;2023-05-27T14:57:19;28.10;52.00
10980;DHT22;5543;51.734;8.744;2023-05-27T14:59:47;27.50;51.30
10980;DHT22;5543;51.734;8.744;2023-05-27T15:02:16;27.40;54.40
10980;DHT22;5543;51.734;8.744;2023-05-27T15:04:45;27.10;52.90
10980;DHT22;5543;51.734;8.744;2023-05-27T15:07:13;26.50;50.80
10980;DHT22;5543;51.734;8.744;2023-05-27T15:09:45;26.10;53.70
10980;DHT22;5543;51.734;8.744;2023-05-27T15:12:13;25.80;54.50
10980;DHT22;5543;51.734;8.744;2023-05-27T15:14:41;25.80;54.70
10980;DHT22;5543;51.734;8.744;2023-05-27T15:17:09;25.80;54.10
10980;DHT22;5543;51.734;8.744;2023-05-27T15:19:39;25.50;56.00
10980;DHT22;5543;51.734;8.744;2023-05-27T15:22:07;25.10;51.50
10980;DHT22;5543;51.734;8.744;2023-05-27T15:24:35;25.00;53.20
10980;DHT22;5543;51.734;8.744;2023-05-27T15:27:04;25.20;54.30
10980;DHT22;5543;51.734;8.744;2023-05-27T15:29:33;25.10;54.40
10980;DHT22;5543;51.734;8.744;2023-05-27T15:32:02;25.00;54.70
10980;DHT22;5543;51.734;8.744;2023-05-27T15:34:30;24.70;56.30
10980;DHT22;5543;51.734;8.744;2023-05-27T15:36:59;24.60;53.80
10980;DHT22;5543;51.734;8.744;2023-05-27T15:39:27;24.20;53.30
10980;DHT22;5543;51.734;8.744;2023-05-27T15:41:56;24.20;55.40
10980;DHT22;5543;51.734;8.744;2023-05-27T15:44:24;24.10;52.00
10980;DHT22;5543;51.734;8.744;2023-05-27T15:46:52;24.20;54.00
10980;DHT22;5543;51.734;8.744;2023-05-27T15:49:20;24.40;53.70
10980;DHT22;5543;51.734;8.744;2023-05-27T15:51:48;24.50;56.00
10980;DHT22;5543;51.734;8.744;2023-05-27T15:54:18;24.50;55.30
10980;DHT22;5543;51.734;8.744;2023-05-27T15:56:46;24.30;54.40
10980;DHT22;5543;51.734;8.744;2023-05-27T15:59:14;24.10;56.60
10980;DHT22;5543;51.734;8.744;2023-05-27T16:01:42;23.80;57.10
10980;DHT22;5543;51.734;8.744;2023-05-27T16:04:10;23.60;56.70
10980;DHT22;5543;51.734;8.744;2023-05-27T16:06:39;23.20;59.30